sensor_id;sensor_type;location;lat;lon;timestamp;P1;durP1;ratioP1;P2;durP2;ratioP2
71572;SDS011;59408;51.032;9.410;2023-04-06T00:00:38;10.35;;;5.32;;
71572;SDS011;59408;51.032;9.410;2023-04-06T00:03:04;10.35;;;5.07;;
71572;SDS011;59408;51.032;9.410;2023-04-06T00:05:31;10.03;;;5.27;;
71572;SDS011;59408;51.032;9.410;2023-04-06T00:07:58;11.00;;;5.47;;
71572;SDS011;59408;51.032;9.410;2023-04-06T00:10:24;11.48;;;5.97;;
71572;SDS011;59408;51.032;9.410;2023-04-06T00:12:51;14.30;;;5.85;;
71572;SDS011;59408;51.032;9.410;2023-04-06T00:15:18;11.93;;;6.40;;
71572;SDS011;59408;51.032;9.410;2023-04-06T00:17:46;11.77;;;6.10;;
71572;SDS011;59408;51.032;9.410;2023-04-06T00:20:13;11.13;;;5.35;;
71572;SDS011;59408;51.032;9.410;2023-04-06T00:22:40;17.42;;;6.20;;
71572;SDS011;59408;51.032;9.410;2023-04-06T00:25:06;13.88;;;7.50;;
71572;SDS011;59408;51.032;9.410;2023-04-06T00:27:33;17.10;;;7.53;;
71572;SDS011;59408;51.032;9.410;2023-04-06T00:30:00;18.57;;;7.57;;
71572;SDS011;59408;51.032;9.410;2023-04-06T00:32:27;18.70;;;7.70;;
71572;SDS011;59408;51.032;9.410;2023-04-06T00:34:55;16.30;;;7.70;;
71572;SDS011;59408;51.032;9.410;2023-04-06T00:37:21;15.85;;;6.75;;
71572;SDS011;59408;51.032;9.410;2023-04-06T00:39:48;13.48;;;6.75;;
71572;SDS011;59408;51.032;9.410;2023-04-06T00:42:15;16.17;;;6.70;;
71572;SDS011;59408;51.032;9.410;2023-04-06T00:44:42;14.13;;;6.65;;
71572;SDS011;59408;51.032;9.410;2023-04-06T00:47:09;12.13;;;6.65;;
71572;SDS011;59408;51.032;9.410;2023-04-06T00:49:35;12.07;;;5.57;;
71572;SDS011;59408;51.032;9.410;2023-04-06T00:52:04;12.02;;;6.10;;
71572;SDS011;59408;51.032;9.410;2023-04-06T00:54:30;13.63;;;6.20;;
71572;SDS011;59408;51.032;9.410;2023-04-06T00:56:57;12.30;;;6.28;;
71572;SDS011;59408;51.032;9.410;2023-04-06T00:59:24;12.35;;;6.05;;
71572;SDS011;59408;51.032;9.410;2023-04-06T01:01:51;12.80;;;6.05;;
71572;SDS011;59408;51.032;9.410;2023-04-06T01:04:18;13.68;;;5.97;;
71572;SDS011;59408;51.032;9.410;2023-04-06T01:06:45;12.43;;;5.57;;
71572;SDS011;59408;51.032;9.410;2023-04-06T01:09:13;11.43;;;5.63;;
71572;SDS011;59408;51.032;9.410;2023-04-06T01:11:40;12.23;;;6.03;;
71572;SDS011;59408;51.032;9.410;2023-04-06T01:14:06;11.10;;;5.88;;
71572;SDS011;59408;51.032;9.410;2023-04-06T01:16:33;12.02;;;6.43;;
71572;SDS011;59408;51.032;9.410;2023-04-06T01:19:00;11.00;;;5.20;;
71572;SDS011;59408;51.032;9.410;2023-04-06T01:21:27;11.98;;;5.75;;
71572;SDS011;59408;51.032;9.410;2023-04-06T01:23:55;11.95;;;5.70;;
71572;SDS011;59408;51.032;9.410;2023-04-06T01:26:22;13.55;;;5.90;;
71572;SDS011;59408;51.032;9.410;2023-04-06T01:28:48;11.27;;;5.70;;
71572;SDS011;59408;51.032;9.410;2023-04-06T01:31:15;12.30;;;5.47;;
71572;SDS011;59408;51.032;9.410;2023-04-06T01:33:42;10.77;;;5.43;;
71572;SDS011;59408;51.032;9.410;2023-04-06T01:36:08;11.75;;;5.85;;
71572;SDS011;59408;51.032;9.410;2023-04-06T01:38:35;11.38;;;5.45;;
71572;SDS011;59408;51.032;9.410;2023-04-06T01:41:03;13.18;;;6.15;;
71572;SDS011;59408;51.032;9.410;2023-04-06T01:43:30;12.40;;;5.97;;
71572;SDS011;59408;51.032;9.410;2023-04-06T01:45:56;12.93;;;5.80;;
71572;SDS011;59408;51.032;9.410;2023-04-06T01:48:23;11.05;;;5.57;;
71572;SDS011;59408;51.032;9.410;2023-04-06T01:50:50;11.80;;;5.70;;
71572;SDS011;59408;51.032;9.410;2023-04-06T01:53:16;12.60;;;6.03;;
71572;SDS011;59408;51.032;9.410;2023-04-06T01:55:43;12.87;;;6.30;;
71572;SDS011;59408;51.032;9.410;2023-04-06T01:58:11;10.15;;;5.13;;
71572;SDS011;59408;51.032;9.410;2023-04-06T02:00:38;11.60;;;6.13;;
71572;SDS011;59408;51.032;9.410;2023-04-06T02:03:04;11.57;;;6.05;;
71572;SDS011;59408;51.032;9.410;2023-04-06T02:05:32;13.32;;;5.75;;
71572;SDS011;59408;51.032;9.410;2023-04-06T02:07:59;11.40;;;5.83;;
71572;SDS011;59408;51.032;9.410;2023-04-06T02:10:26;13.05;;;5.57;;
71572;SDS011;59408;51.032;9.410;2023-04-06T02:12:53;12.10;;;5.82;;
71572;SDS011;59408;51.032;9.410;2023-04-06T02:15:21;13.10;;;6.18;;
71572;SDS011;59408;51.032;9.410;2023-04-06T02:17:47;11.85;;;5.80;;
71572;SDS011;59408;51.032;9.410;2023-04-06T02:20:14;11.77;;;5.83;;
71572;SDS011;59408;51.032;9.410;2023-04-06T02:22:41;11.68;;;5.68;;
71572;SDS011;59408;51.032;9.410;2023-04-06T02:25:08;13.05;;;6.57;;
71572;SDS011;59408;51.032;9.410;2023-04-06T02:27:34;12.82;;;5.88;;
71572;SDS011;59408;51.032;9.410;2023-04-06T02:30:01;12.80;;;6.60;;
71572;SDS011;59408;51.032;9.410;2023-04-06T02:32:29;11.67;;;5.73;;
71572;SDS011;59408;51.032;9.410;2023-04-06T02:34:56;11.38;;;5.90;;
71572;SDS011;59408;51.032;9.410;2023-04-06T02:37:22;12.88;;;6.60;;
71572;SDS011;59408;51.032;9.410;2023-04-06T02:39:49;12.10;;;6.05;;
71572;SDS011;59408;51.032;9.410;2023-04-06T02:42:16;12.95;;;6.30;;
71572;SDS011;59408;51.032;9.410;2023-04-06T02:44:43;11.70;;;5.30;;
71572;SDS011;59408;51.032;9.410;2023-04-06T02:47:09;11.18;;;5.38;;
71572;SDS011;59408;51.032;9.410;2023-04-06T02:49:37;13.48;;;6.28;;
71572;SDS011;59408;51.032;9.410;2023-04-06T02:52:04;11.98;;;5.90;;
71572;SDS011;59408;51.032;9.410;2023-04-06T02:54:31;14.00;;;6.60;;
71572;SDS011;59408;51.032;9.410;2023-04-06T02:56:58;13.10;;;6.20;;
71572;SDS011;59408;51.032;9.410;2023-04-06T02:59:24;12.32;;;5.53;;
71572;SDS011;59408;51.032;9.410;2023-04-06T03:01:51;11.73;;;6.03;;
71572;SDS011;59408;51.032;9.410;2023-04-06T03:04:18;12.65;;;6.00;;
71572;SDS011;59408;51.032;9.410;2023-04-06T03:06:46;13.38;;;6.70;;
71572;SDS011;59408;51.032;9.410;2023-04-06T03:09:13;15.87;;;6.30;;
71572;SDS011;59408;51.032;9.410;2023-04-06T03:11:39;14.13;;;6.43;;
71572;SDS011;59408;51.032;9.410;2023-04-06T03:14:06;13.55;;;6.13;;
71572;SDS011;59408;51.032;9.410;2023-04-06T03:16:33;11.73;;;4.93;;
71572;SDS011;59408;51.032;9.410;2023-04-06T03:18:59;11.70;;;5.85;;
71572;SDS011;59408;51.032;9.410;2023-04-06T03:21:26;11.67;;;5.70;;
71572;SDS011;59408;51.032;9.410;2023-04-06T03:23:54;12.60;;;6.10;;
71572;SDS011;59408;51.032;9.410;2023-04-06T03:26:21;14.60;;;6.10;;
71572;SDS011;59408;51.032;9.410;2023-04-06T03:28:48;13.20;;;6.13;;
71572;SDS011;59408;51.032;9.410;2023-04-06T03:31:14;13.93;;;6.50;;
71572;SDS011;59408;51.032;9.410;2023-04-06T03:33:41;10.83;;;5.77;;
71572;SDS011;59408;51.032;9.410;2023-04-06T03:36:08;14.40;;;5.68;;
71572;SDS011;59408;51.032;9.410;2023-04-06T03:38:34;14.27;;;6.25;;
71572;SDS011;59408;51.032;9.410;2023-04-06T03:41:02;11.90;;;6.20;;
71572;SDS011;59408;51.032;9.410;2023-04-06T03:43:29;15.20;;;6.72;;
71572;SDS011;59408;51.032;9.410;2023-04-06T03:45:56;12.67;;;6.00;;
71572;SDS011;59408;51.032;9.410;2023-04-06T03:48:22;12.65;;;6.38;;
71572;SDS011;59408;51.032;9.410;2023-04-06T03:50:49;13.43;;;6.30;;
71572;SDS011;59408;51.032;9.410;2023-04-06T03:53:16;11.57;;;5.93;;
71572;SDS011;59408;51.032;9.410;2023-04-06T03:55:42;12.68;;;6.63;;
71572;SDS011;59408;51.032;9.410;2023-04-06T03:58:10;13.17;;;5.90;;
71572;SDS011;59408;51.032;9.410;2023-04-06T04:00:37;13.18;;;6.57;;
71572;SDS011;59408;51.032;9.410;2023-04-06T04:03:04;17.10;;;6.40;;
71572;SDS011;59408;51.032;9.410;2023-04-06T04:05:30;13.32;;;6.38;;
71572;SDS011;59408;51.032;9.410;2023-04-06T04:07:57;14.15;;;6.45;;
71572;SDS011;59408;51.032;9.410;2023-04-06T04:10:24;14.90;;;6.70;;
71572;SDS011;59408;51.032;9.410;2023-04-06T04:12:51;13.15;;;6.38;;
71572;SDS011;59408;51.032;9.410;2023-04-06T04:15:19;15.27;;;6.40;;
71572;SDS011;59408;51.032;9.410;2023-04-06T04:17:45;14.27;;;6.55;;
71572;SDS011;59408;51.032;9.410;2023-04-06T04:20:12;13.57;;;6.50;;
71572;SDS011;59408;51.032;9.410;2023-04-06T04:22:39;15.83;;;6.77;;
71572;SDS011;59408;51.032;9.410;2023-04-06T04:25:07;14.20;;;6.18;;
71572;SDS011;59408;51.032;9.410;2023-04-06T04:27:34;14.38;;;5.95;;
71572;SDS011;59408;51.032;9.410;2023-04-06T04:30:00;12.18;;;5.90;;
71572;SDS011;59408;51.032;9.410;2023-04-06T04:32:29;14.13;;;6.68;;
71572;SDS011;59408;51.032;9.410;2023-04-06T04:34:55;14.23;;;6.17;;
71572;SDS011;59408;51.032;9.410;2023-04-06T04:37:22;13.55;;;5.97;;
71572;SDS011;59408;51.032;9.410;2023-04-06T04:39:49;14.50;;;6.60;;
71572;SDS011;59408;51.032;9.410;2023-04-06T04:42:15;13.18;;;5.97;;
71572;SDS011;59408;51.032;9.410;2023-04-06T04:44:42;15.07;;;6.93;;
71572;SDS011;59408;51.032;9.410;2023-04-06T04:47:08;12.20;;;6.57;;
71572;SDS011;59408;51.032;9.410;2023-04-06T04:49:36;12.27;;;5.65;;
71572;SDS011;59408;51.032;9.410;2023-04-06T04:52:03;12.20;;;6.47;;
71572;SDS011;59408;51.032;9.410;2023-04-06T04:54:30;12.40;;;6.20;;
71572;SDS011;59408;51.032;9.410;2023-04-06T04:56:56;14.30;;;6.72;;
71572;SDS011;59408;51.032;9.410;2023-04-06T04:59:24;17.37;;;6.90;;
71572;SDS011;59408;51.032;9.410;2023-04-06T05:01:50;14.32;;;6.30;;
71572;SDS011;59408;51.032;9.410;2023-04-06T05:04:21;15.23;;;7.22;;
71572;SDS011;59408;51.032;9.410;2023-04-06T05:06:49;15.40;;;6.75;;
71572;SDS011;59408;51.032;9.410;2023-04-06T05:09:16;14.80;;;6.68;;
71572;SDS011;59408;51.032;9.410;2023-04-06T05:11:43;12.90;;;6.30;;
71572;SDS011;59408;51.032;9.410;2023-04-06T05:14:09;12.60;;;6.05;;
71572;SDS011;59408;51.032;9.410;2023-04-06T05:16:36;13.13;;;6.55;;
71572;SDS011;59408;51.032;9.410;2023-04-06T05:19:03;12.75;;;6.80;;
71572;SDS011;59408;51.032;9.410;2023-04-06T05:21:30;14.05;;;6.80;;
71572;SDS011;59408;51.032;9.410;2023-04-06T05:23:58;14.10;;;6.33;;
71572;SDS011;59408;51.032;9.410;2023-04-06T05:26:24;12.85;;;6.38;;
71572;SDS011;59408;51.032;9.410;2023-04-06T05:28:51;12.98;;;6.22;;
71572;SDS011;59408;51.032;9.410;2023-04-06T05:31:18;15.27;;;6.85;;
71572;SDS011;59408;51.032;9.410;2023-04-06T05:33:44;14.00;;;6.70;;
71572;SDS011;59408;51.032;9.410;2023-04-06T05:36:11;15.57;;;7.13;;
71572;SDS011;59408;51.032;9.410;2023-04-06T05:38:40;11.75;;;6.03;;
71572;SDS011;59408;51.032;9.410;2023-04-06T05:41:08;12.27;;;6.75;;
71572;SDS011;59408;51.032;9.410;2023-04-06T05:43:36;16.48;;;7.55;;
71572;SDS011;59408;51.032;9.410;2023-04-06T05:46:03;15.57;;;7.38;;
71572;SDS011;59408;51.032;9.410;2023-04-06T05:48:30;16.27;;;8.07;;
71572;SDS011;59408;51.032;9.410;2023-04-06T05:50:56;17.00;;;8.50;;
71572;SDS011;59408;51.032;9.410;2023-04-06T05:53:23;18.55;;;8.00;;
71572;SDS011;59408;51.032;9.410;2023-04-06T05:55:50;14.88;;;7.18;;
71572;SDS011;59408;51.032;9.410;2023-04-06T05:58:18;15.55;;;6.88;;
71572;SDS011;59408;51.032;9.410;2023-04-06T06:00:44;13.73;;;6.30;;
71572;SDS011;59408;51.032;9.410;2023-04-06T06:03:11;13.52;;;6.55;;
71572;SDS011;59408;51.032;9.410;2023-04-06T06:05:38;17.77;;;8.00;;
71572;SDS011;59408;51.032;9.410;2023-04-06T06:08:05;16.77;;;8.25;;
71572;SDS011;59408;51.032;9.410;2023-04-06T06:10:32;17.05;;;8.20;;
71572;SDS011;59408;51.032;9.410;2023-04-06T06:12:58;18.20;;;7.63;;
71572;SDS011;59408;51.032;9.410;2023-04-06T06:15:26;16.98;;;8.20;;
71572;SDS011;59408;51.032;9.410;2023-04-06T06:17:53;23.63;;;11.95;;
71572;SDS011;59408;51.032;9.410;2023-04-06T06:20:20;16.67;;;8.90;;
71572;SDS011;59408;51.032;9.410;2023-04-06T06:22:46;18.90;;;8.52;;
71572;SDS011;59408;51.032;9.410;2023-04-06T06:25:13;17.70;;;7.67;;
71572;SDS011;59408;51.032;9.410;2023-04-06T06:27:40;17.85;;;8.80;;
71572;SDS011;59408;51.032;9.410;2023-04-06T06:30:07;16.35;;;8.27;;
71572;SDS011;59408;51.032;9.410;2023-04-06T06:32:35;15.23;;;7.18;;
71572;SDS011;59408;51.032;9.410;2023-04-06T06:35:02;16.83;;;7.43;;
71572;SDS011;59408;51.032;9.410;2023-04-06T06:37:29;15.70;;;7.63;;
71572;SDS011;59408;51.032;9.410;2023-04-06T06:39:56;15.15;;;7.32;;
71572;SDS011;59408;51.032;9.410;2023-04-06T06:42:23;15.98;;;7.10;;
71572;SDS011;59408;51.032;9.410;2023-04-06T06:44:50;17.20;;;7.30;;
71572;SDS011;59408;51.032;9.410;2023-04-06T06:47:17;15.88;;;7.97;;
71572;SDS011;59408;51.032;9.410;2023-04-06T06:49:45;12.97;;;6.83;;
71572;SDS011;59408;51.032;9.410;2023-04-06T06:52:12;14.05;;;6.75;;
71572;SDS011;59408;51.032;9.410;2023-04-06T06:54:39;14.02;;;7.63;;
71572;SDS011;59408;51.032;9.410;2023-04-06T06:57:06;20.95;;;10.73;;
71572;SDS011;59408;51.032;9.410;2023-04-06T06:59:32;18.08;;;8.27;;
71572;SDS011;59408;51.032;9.410;2023-04-06T07:01:59;16.27;;;8.27;;
71572;SDS011;59408;51.032;9.410;2023-04-06T07:04:26;15.68;;;7.82;;
71572;SDS011;59408;51.032;9.410;2023-04-06T07:06:54;17.63;;;8.77;;
71572;SDS011;59408;51.032;9.410;2023-04-06T07:09:21;23.52;;;8.57;;
71572;SDS011;59408;51.032;9.410;2023-04-06T07:11:48;18.33;;;9.55;;
71572;SDS011;59408;51.032;9.410;2023-04-06T07:14:15;18.50;;;8.37;;
71572;SDS011;59408;51.032;9.410;2023-04-06T07:16:42;17.25;;;8.45;;
71572;SDS011;59408;51.032;9.410;2023-04-06T07:19:09;16.33;;;8.73;;
71572;SDS011;59408;51.032;9.410;2023-04-06T07:21:35;16.45;;;8.80;;
71572;SDS011;59408;51.032;9.410;2023-04-06T07:24:03;14.95;;;8.20;;
71572;SDS011;59408;51.032;9.410;2023-04-06T07:26:30;16.27;;;7.93;;
71572;SDS011;59408;51.032;9.410;2023-04-06T07:28:57;16.23;;;7.70;;
71572;SDS011;59408;51.032;9.410;2023-04-06T07:31:23;14.07;;;7.72;;
71572;SDS011;59408;51.032;9.410;2023-04-06T07:33:50;15.18;;;8.00;;
71572;SDS011;59408;51.032;9.410;2023-04-06T07:36:17;14.88;;;8.20;;
71572;SDS011;59408;51.032;9.410;2023-04-06T07:38:43;12.93;;;7.30;;
71572;SDS011;59408;51.032;9.410;2023-04-06T07:41:11;13.05;;;7.53;;
71572;SDS011;59408;51.032;9.410;2023-04-06T07:43:38;15.75;;;8.68;;
71572;SDS011;59408;51.032;9.410;2023-04-06T07:46:05;16.60;;;8.50;;
71572;SDS011;59408;51.032;9.410;2023-04-06T07:48:32;16.58;;;8.30;;
71572;SDS011;59408;51.032;9.410;2023-04-06T07:51:01;18.40;;;8.20;;
71572;SDS011;59408;51.032;9.410;2023-04-06T07:53:28;15.45;;;7.60;;
71572;SDS011;59408;51.032;9.410;2023-04-06T07:55:55;14.10;;;7.95;;
71572;SDS011;59408;51.032;9.410;2023-04-06T07:58:23;16.20;;;7.93;;
71572;SDS011;59408;51.032;9.410;2023-04-06T08:00:49;15.77;;;8.38;;
71572;SDS011;59408;51.032;9.410;2023-04-06T08:03:16;17.53;;;8.10;;
71572;SDS011;59408;51.032;9.410;2023-04-06T08:05:43;16.67;;;8.10;;
71572;SDS011;59408;51.032;9.410;2023-04-06T08:08:10;15.82;;;8.43;;
71572;SDS011;59408;51.032;9.410;2023-04-06T08:10:36;15.57;;;8.25;;
71572;SDS011;59408;51.032;9.410;2023-04-06T08:13:03;15.02;;;8.10;;
71572;SDS011;59408;51.032;9.410;2023-04-06T08:15:31;14.47;;;7.90;;
71572;SDS011;59408;51.032;9.410;2023-04-06T08:17:58;14.43;;;7.80;;
71572;SDS011;59408;51.032;9.410;2023-04-06T08:20:24;15.40;;;7.95;;
71572;SDS011;59408;51.032;9.410;2023-04-06T08:22:51;14.82;;;7.90;;
71572;SDS011;59408;51.032;9.410;2023-04-06T08:25:19;15.52;;;8.50;;
71572;SDS011;59408;51.032;9.410;2023-04-06T08:27:45;14.90;;;8.07;;
71572;SDS011;59408;51.032;9.410;2023-04-06T08:30:12;14.45;;;8.15;;
71572;SDS011;59408;51.032;9.410;2023-04-06T08:32:40;17.85;;;8.00;;
71572;SDS011;59408;51.032;9.410;2023-04-06T08:35:07;14.75;;;7.90;;
71572;SDS011;59408;51.032;9.410;2023-04-06T08:37:34;13.80;;;7.72;;
71572;SDS011;59408;51.032;9.410;2023-04-06T08:40:01;17.30;;;7.13;;
71572;SDS011;59408;51.032;9.410;2023-04-06T08:42:28;14.63;;;7.93;;
71572;SDS011;59408;51.032;9.410;2023-04-06T08:44:58;13.55;;;7.57;;
71572;SDS011;59408;51.032;9.410;2023-04-06T08:47:26;15.43;;;7.63;;
71572;SDS011;59408;51.032;9.410;2023-04-06T08:49:56;13.80;;;7.60;;
71572;SDS011;59408;51.032;9.410;2023-04-06T08:52:23;15.10;;;8.67;;
71572;SDS011;59408;51.032;9.410;2023-04-06T08:54:52;13.02;;;7.50;;
71572;SDS011;59408;51.032;9.410;2023-04-06T08:57:19;12.43;;;7.20;;
71572;SDS011;59408;51.032;9.410;2023-04-06T08:59:46;13.63;;;7.43;;
71572;SDS011;59408;51.032;9.410;2023-04-06T09:02:15;17.75;;;7.80;;
71572;SDS011;59408;51.032;9.410;2023-04-06T09:04:44;13.20;;;7.20;;
71572;SDS011;59408;51.032;9.410;2023-04-06T09:07:15;13.18;;;7.07;;
71572;SDS011;59408;51.032;9.410;2023-04-06T09:09:42;13.45;;;7.40;;
71572;SDS011;59408;51.032;9.410;2023-04-06T09:12:09;15.18;;;7.82;;
71572;SDS011;59408;51.032;9.410;2023-04-06T09:14:36;15.07;;;7.32;;
71572;SDS011;59408;51.032;9.410;2023-04-06T09:17:03;15.73;;;7.80;;
71572;SDS011;59408;51.032;9.410;2023-04-06T09:19:31;19.20;;;8.73;;
71572;SDS011;59408;51.032;9.410;2023-04-06T09:22:01;16.80;;;8.27;;
71572;SDS011;59408;51.032;9.410;2023-04-06T09:24:40;12.88;;;7.05;;
71572;SDS011;59408;51.032;9.410;2023-04-06T09:27:07;12.77;;;6.78;;
71572;SDS011;59408;51.032;9.410;2023-04-06T09:29:34;12.57;;;6.60;;
71572;SDS011;59408;51.032;9.410;2023-04-06T09:32:04;12.35;;;6.95;;
71572;SDS011;59408;51.032;9.410;2023-04-06T09:34:31;12.45;;;6.70;;
71572;SDS011;59408;51.032;9.410;2023-04-06T09:36:58;11.95;;;6.50;;
71572;SDS011;59408;51.032;9.410;2023-04-06T09:39:25;11.75;;;6.65;;
71572;SDS011;59408;51.032;9.410;2023-04-06T09:41:53;12.20;;;6.47;;
71572;SDS011;59408;51.032;9.410;2023-04-06T09:44:20;13.35;;;6.80;;
71572;SDS011;59408;51.032;9.410;2023-04-06T09:46:47;15.48;;;6.88;;
71572;SDS011;59408;51.032;9.410;2023-04-06T09:49:26;14.23;;;6.97;;
71572;SDS011;59408;51.032;9.410;2023-04-06T09:51:55;12.13;;;6.45;;
71572;SDS011;59408;51.032;9.410;2023-04-06T09:54:25;11.67;;;5.90;;
71572;SDS011;59408;51.032;9.410;2023-04-06T09:56:58;13.00;;;6.80;;
71572;SDS011;59408;51.032;9.410;2023-04-06T09:59:31;14.02;;;6.88;;
71572;SDS011;59408;51.032;9.410;2023-04-06T10:02:06;14.38;;;6.75;;
71572;SDS011;59408;51.032;9.410;2023-04-06T10:04:40;12.13;;;6.60;;
71572;SDS011;59408;51.032;9.410;2023-04-06T10:07:09;12.47;;;6.60;;
71572;SDS011;59408;51.032;9.410;2023-04-06T10:09:37;13.93;;;6.93;;
71572;SDS011;59408;51.032;9.410;2023-04-06T10:12:05;11.93;;;6.53;;
71572;SDS011;59408;51.032;9.410;2023-04-06T10:14:33;12.77;;;7.13;;
71572;SDS011;59408;51.032;9.410;2023-04-06T10:17:00;14.55;;;6.43;;
71572;SDS011;59408;51.032;9.410;2023-04-06T10:19:29;12.33;;;6.70;;
71572;SDS011;59408;51.032;9.410;2023-04-06T10:22:03;13.68;;;6.80;;
71572;SDS011;59408;51.032;9.410;2023-04-06T10:24:32;13.55;;;7.15;;
71572;SDS011;59408;51.032;9.410;2023-04-06T10:27:00;13.95;;;7.32;;
71572;SDS011;59408;51.032;9.410;2023-04-06T10:29:31;13.38;;;7.00;;
71572;SDS011;59408;51.032;9.410;2023-04-06T10:32:08;14.43;;;7.23;;
71572;SDS011;59408;51.032;9.410;2023-04-06T10:34:35;12.80;;;7.03;;
71572;SDS011;59408;51.032;9.410;2023-04-06T10:37:10;13.25;;;7.00;;
71572;SDS011;59408;51.032;9.410;2023-04-06T10:39:45;14.93;;;6.63;;
71572;SDS011;59408;51.032;9.410;2023-04-06T10:42:15;13.50;;;6.90;;
71572;SDS011;59408;51.032;9.410;2023-04-06T10:44:43;11.87;;;6.70;;
71572;SDS011;59408;51.032;9.410;2023-04-06T10:47:15;13.55;;;6.95;;
71572;SDS011;59408;51.032;9.410;2023-04-06T10:49:43;12.30;;;6.78;;
71572;SDS011;59408;51.032;9.410;2023-04-06T10:52:09;15.07;;;6.93;;
71572;SDS011;59408;51.032;9.410;2023-04-06T10:54:38;14.90;;;7.28;;
71572;SDS011;59408;51.032;9.410;2023-04-06T10:57:07;14.67;;;7.43;;
71572;SDS011;59408;51.032;9.410;2023-04-06T10:59:34;14.90;;;6.93;;
71572;SDS011;59408;51.032;9.410;2023-04-06T11:02:02;14.25;;;7.30;;
71572;SDS011;59408;51.032;9.410;2023-04-06T11:04:29;13.48;;;6.97;;
71572;SDS011;59408;51.032;9.410;2023-04-06T11:06:55;13.82;;;7.07;;
71572;SDS011;59408;51.032;9.410;2023-04-06T11:09:23;14.07;;;7.27;;
71572;SDS011;59408;51.032;9.410;2023-04-06T11:11:50;14.13;;;6.90;;
71572;SDS011;59408;51.032;9.410;2023-04-06T11:14:17;14.68;;;7.07;;
71572;SDS011;59408;51.032;9.410;2023-04-06T11:16:45;14.02;;;6.80;;
71572;SDS011;59408;51.032;9.410;2023-04-06T11:19:14;15.43;;;7.10;;
71572;SDS011;59408;51.032;9.410;2023-04-06T11:21:41;13.50;;;7.00;;
71572;SDS011;59408;51.032;9.410;2023-04-06T11:24:12;13.35;;;6.82;;
71572;SDS011;59408;51.032;9.410;2023-04-06T11:26:40;12.93;;;6.80;;
71572;SDS011;59408;51.032;9.410;2023-04-06T11:29:07;13.70;;;6.22;;
71572;SDS011;59408;51.032;9.410;2023-04-06T11:31:39;12.90;;;6.57;;
71572;SDS011;59408;51.032;9.410;2023-04-06T11:34:11;15.73;;;6.30;;
71572;SDS011;59408;51.032;9.410;2023-04-06T11:36:43;12.85;;;6.35;;
71572;SDS011;59408;51.032;9.410;2023-04-06T11:39:11;12.65;;;5.80;;
71572;SDS011;59408;51.032;9.410;2023-04-06T11:41:46;12.70;;;5.63;;
71572;SDS011;59408;51.032;9.410;2023-04-06T11:44:13;12.80;;;6.30;;
71572;SDS011;59408;51.032;9.410;2023-04-06T11:46:40;14.00;;;6.10;;
71572;SDS011;59408;51.032;9.410;2023-04-06T11:49:07;11.23;;;6.13;;
71572;SDS011;59408;51.032;9.410;2023-04-06T11:51:35;12.43;;;6.05;;
71572;SDS011;59408;51.032;9.410;2023-04-06T11:54:03;11.68;;;6.00;;
71572;SDS011;59408;51.032;9.410;2023-04-06T11:56:30;11.45;;;5.40;;
71572;SDS011;59408;51.032;9.410;2023-04-06T11:58:57;12.20;;;6.10;;
71572;SDS011;59408;51.032;9.410;2023-04-06T12:01:25;13.47;;;5.80;;
71572;SDS011;59408;51.032;9.410;2023-04-06T12:03:53;12.23;;;5.63;;
71572;SDS011;59408;51.032;9.410;2023-04-06T12:06:20;11.68;;;5.00;;
71572;SDS011;59408;51.032;9.410;2023-04-06T12:08:49;10.63;;;5.82;;
71572;SDS011;59408;51.032;9.410;2023-04-06T12:11:17;11.48;;;5.35;;
71572;SDS011;59408;51.032;9.410;2023-04-06T12:13:43;10.23;;;5.37;;
71572;SDS011;59408;51.032;9.410;2023-04-06T12:16:10;12.65;;;6.20;;
71572;SDS011;59408;51.032;9.410;2023-04-06T12:18:37;13.63;;;6.05;;
71572;SDS011;59408;51.032;9.410;2023-04-06T12:21:04;13.82;;;5.80;;
71572;SDS011;59408;51.032;9.410;2023-04-06T12:23:30;11.48;;;5.47;;
71572;SDS011;59408;51.032;9.410;2023-04-06T12:25:57;13.93;;;5.90;;
71572;SDS011;59408;51.032;9.410;2023-04-06T12:28:25;10.80;;;5.13;;
71572;SDS011;59408;51.032;9.410;2023-04-06T12:30:52;11.23;;;5.88;;
71572;SDS011;59408;51.032;9.410;2023-04-06T12:33:19;12.13;;;5.18;;
71572;SDS011;59408;51.032;9.410;2023-04-06T12:35:45;9.68;;;5.20;;
71572;SDS011;59408;51.032;9.410;2023-04-06T12:38:12;10.60;;;5.00;;
71572;SDS011;59408;51.032;9.410;2023-04-06T12:40:39;10.48;;;4.95;;
71572;SDS011;59408;51.032;9.410;2023-04-06T12:43:05;11.50;;;5.60;;
71572;SDS011;59408;51.032;9.410;2023-04-06T12:45:33;11.18;;;5.32;;
71572;SDS011;59408;51.032;9.410;2023-04-06T12:48:00;10.10;;;5.30;;
71572;SDS011;59408;51.032;9.410;2023-04-06T12:50:27;11.10;;;5.33;;
71572;SDS011;59408;51.032;9.410;2023-04-06T12:52:54;9.55;;;4.78;;
71572;SDS011;59408;51.032;9.410;2023-04-06T12:55:20;9.98;;;5.25;;
71572;SDS011;59408;51.032;9.410;2023-04-06T12:57:47;10.38;;;5.20;;
71572;SDS011;59408;51.032;9.410;2023-04-06T13:00:14;10.95;;;5.22;;
71572;SDS011;59408;51.032;9.410;2023-04-06T13:02:43;10.40;;;4.93;;
71572;SDS011;59408;51.032;9.410;2023-04-06T13:05:10;11.63;;;5.28;;
71572;SDS011;59408;51.032;9.410;2023-04-06T13:07:36;10.10;;;5.20;;
71572;SDS011;59408;51.032;9.410;2023-04-06T13:10:03;11.60;;;5.00;;
71572;SDS011;59408;51.032;9.410;2023-04-06T13:12:31;10.82;;;5.15;;
71572;SDS011;59408;51.032;9.410;2023-04-06T13:14:57;12.27;;;5.60;;
71572;SDS011;59408;51.032;9.410;2023-04-06T13:17:26;12.18;;;5.90;;
71572;SDS011;59408;51.032;9.410;2023-04-06T13:19:54;11.13;;;6.03;;
71572;SDS011;59408;51.032;9.410;2023-04-06T13:22:21;10.25;;;5.03;;
71572;SDS011;59408;51.032;9.410;2023-04-06T13:24:48;11.32;;;5.63;;
71572;SDS011;59408;51.032;9.410;2023-04-06T13:27:14;11.87;;;5.70;;
71572;SDS011;59408;51.032;9.410;2023-04-06T13:29:41;12.23;;;5.75;;
71572;SDS011;59408;51.032;9.410;2023-04-06T13:32:08;10.18;;;5.30;;
71572;SDS011;59408;51.032;9.410;2023-04-06T13:34:35;9.65;;;4.55;;
71572;SDS011;59408;51.032;9.410;2023-04-06T13:37:03;10.25;;;5.55;;
71572;SDS011;59408;51.032;9.410;2023-04-06T13:39:30;10.93;;;5.80;;
71572;SDS011;59408;51.032;9.410;2023-04-06T13:41:57;11.50;;;5.50;;
71572;SDS011;59408;51.032;9.410;2023-04-06T13:44:25;11.93;;;6.07;;
71572;SDS011;59408;51.032;9.410;2023-04-06T13:46:52;11.52;;;6.50;;
71572;SDS011;59408;51.032;9.410;2023-04-06T13:49:18;12.48;;;5.55;;
71572;SDS011;59408;51.032;9.410;2023-04-06T13:51:45;11.05;;;5.60;;
71572;SDS011;59408;51.032;9.410;2023-04-06T13:54:13;12.90;;;6.33;;
71572;SDS011;59408;51.032;9.410;2023-04-06T13:56:40;11.43;;;6.05;;
71572;SDS011;59408;51.032;9.410;2023-04-06T13:59:07;11.23;;;6.28;;
71572;SDS011;59408;51.032;9.410;2023-04-06T14:01:33;10.63;;;5.65;;
71572;SDS011;59408;51.032;9.410;2023-04-06T14:04:00;12.00;;;5.85;;
71572;SDS011;59408;51.032;9.410;2023-04-06T14:06:27;12.53;;;5.93;;
71572;SDS011;59408;51.032;9.410;2023-04-06T14:08:57;10.93;;;6.20;;
71572;SDS011;59408;51.032;9.410;2023-04-06T14:11:25;10.98;;;5.63;;
71572;SDS011;59408;51.032;9.410;2023-04-06T14:13:52;13.23;;;6.47;;
71572;SDS011;59408;51.032;9.410;2023-04-06T14:16:22;10.88;;;5.90;;
71572;SDS011;59408;51.032;9.410;2023-04-06T14:18:49;13.07;;;6.37;;
71572;SDS011;59408;51.032;9.410;2023-04-06T14:21:16;13.10;;;5.83;;
71572;SDS011;59408;51.032;9.410;2023-04-06T14:23:42;12.07;;;6.22;;
71572;SDS011;59408;51.032;9.410;2023-04-06T14:26:09;12.50;;;5.80;;
71572;SDS011;59408;51.032;9.410;2023-04-06T14:28:37;12.43;;;6.00;;
71572;SDS011;59408;51.032;9.410;2023-04-06T14:31:09;11.73;;;6.60;;
71572;SDS011;59408;51.032;9.410;2023-04-06T14:33:36;11.60;;;6.10;;
71572;SDS011;59408;51.032;9.410;2023-04-06T14:36:03;10.32;;;5.80;;